sensor_id;sensor_type;location;lat;lon;timestamp;temperature;humidity
38359;DHT22;42072;48.044;14.416;2023-04-25T00:01:59;6.90;99.90
38359;DHT22;42072;48.044;14.416;2023-04-25T00:04:27;6.90;99.90
38359;DHT22;42072;48.044;14.416;2023-04-25T00:06:55;6.90;99.90
38359;DHT22;42072;48.044;14.416;2023-04-25T00:09:22;7.00;99.90
38359;DHT22;42072;48.044;14.416;2023-04-25T00:11:49;7.10;99.90
38359;DHT22;42072;48.044;14.416;2023-04-25T00:14:16;7.10;99.90
38359;DHT22;42072;48.044;14.416;2023-04-25T00:16:44;7.20;99.90
38359;DHT22;42072;48.044;14.416;2023-04-25T00:19:12;7.30;99.90
38359;DHT22;42072;48.044;14.416;2023-04-25T00:21:40;7.30;99.90
38359;DHT22;42072;48.044;14.416;2023-04-25T00:24:08;7.30;99.90
38359;DHT22;42072;48.044;14.416;2023-04-25T00:26:35;7.30;99.90
38359;DHT22;42072;48.044;14.416;2023-04-25T00:29:03;7.30;99.90
38359;DHT22;42072;48.044;14.416;2023-04-25T00:31:30;7.30;99.90
38359;DHT22;42072;48.044;14.416;2023-04-25T00:33:57;7.20;99.90
38359;DHT22;42072;48.044;14.416;2023-04-25T00:36:24;7.20;99.90
38359;DHT22;42072;48.044;14.416;2023-04-25T00:38:53;7.10;99.90
38359;DHT22;42072;48.044;14.416;2023-04-25T00:41:22;7.00;99.90
38359;DHT22;42072;48.044;14.416;2023-04-25T00:43:49;6.80;99.90
38359;DHT22;42072;48.044;14.416;2023-04-25T00:46:17;6.70;99.90
38359;DHT22;42072;48.044;14.416;2023-04-25T00:48:45;6.60;99.90
38359;DHT22;42072;48.044;14.416;2023-04-25T00:51:19;6.50;99.90
38359;DHT22;42072;48.044;14.416;2023-04-25T00:53:48;6.60;99.90
38359;DHT22;42072;48.044;14.416;2023-04-25T00:56:17;6.60;99.90
38359;DHT22;42072;48.044;14.416;2023-04-25T00:58:45;6.70;99.90
38359;DHT22;42072;48.044;14.416;2023-04-25T01:01:12;6.70;99.90
38359;DHT22;42072;48.044;14.416;2023-04-25T01:03:40;6.70;99.90
38359;DHT22;42072;48.044;14.416;2023-04-25T01:06:09;6.70;99.90
38359;DHT22;42072;48.044;14.416;2023-04-25T01:08:39;6.60;99.90
38359;DHT22;42072;48.044;14.416;2023-04-25T01:11:07;6.60;99.90
38359;DHT22;42072;48.044;14.416;2023-04-25T01:13:35;6.50;99.90
38359;DHT22;42072;48.044;14.416;2023-04-25T01:16:03;6.50;99.90
38359;DHT22;42072;48.044;14.416;2023-04-25T01:18:30;6.40;99.90
38359;DHT22;42072;48.044;14.416;2023-04-25T01:21:06;6.40;1.00
38359;DHT22;42072;48.044;14.416;2023-04-25T01:23:34;6.40;1.00
38359;DHT22;42072;48.044;14.416;2023-04-25T01:26:02;6.50;1.00
38359;DHT22;42072;48.044;14.416;2023-04-25T01:28:30;6.60;1.00
38359;DHT22;42072;48.044;14.416;2023-04-25T01:30:57;6.60;1.00
38359;DHT22;42072;48.044;14.416;2023-04-25T01:33:25;6.70;1.00
38359;DHT22;42072;48.044;14.416;2023-04-25T01:35:52;6.70;1.00
38359;DHT22;42072;48.044;14.416;2023-04-25T01:38:20;6.70;1.00
38359;DHT22;42072;48.044;14.416;2023-04-25T01:40:48;6.80;1.00
38359;DHT22;42072;48.044;14.416;2023-04-25T01:43:16;6.80;1.00
38359;DHT22;42072;48.044;14.416;2023-04-25T01:45:44;6.90;1.00
38359;DHT22;42072;48.044;14.416;2023-04-25T01:48:13;6.80;1.00
38359;DHT22;42072;48.044;14.416;2023-04-25T01:50:41;6.80;1.00
38359;DHT22;42072;48.044;14.416;2023-04-25T01:53:09;6.70;1.00
38359;DHT22;42072;48.044;14.416;2023-04-25T01:55:38;6.70;1.00
38359;DHT22;42072;48.044;14.416;2023-04-25T01:58:05;6.70;1.00
38359;DHT22;42072;48.044;14.416;2023-04-25T02:00:39;6.70;1.00
38359;DHT22;42072;48.044;14.416;2023-04-25T02:03:08;6.70;1.00
38359;DHT22;42072;48.044;14.416;2023-04-25T02:05:37;6.80;1.00
38359;DHT22;42072;48.044;14.416;2023-04-25T02:08:08;6.80;1.00
38359;DHT22;42072;48.044;14.416;2023-04-25T02:10:36;6.80;1.00
38359;DHT22;42072;48.044;14.416;2023-04-25T02:13:03;6.90;1.00
38359;DHT22;42072;48.044;14.416;2023-04-25T02:15:32;6.80;1.00
38359;DHT22;42072;48.044;14.416;2023-04-25T02:17:59;6.80;1.00
38359;DHT22;42072;48.044;14.416;2023-04-25T02:20:30;6.80;1.00
38359;DHT22;42072;48.044;14.416;2023-04-25T02:22:57;6.80;1.00
38359;DHT22;42072;48.044;14.416;2023-04-25T02:25:24;6.80;1.00
38359;DHT22;42072;48.044;14.416;2023-04-25T02:27:52;6.80;1.00
38359;DHT22;42072;48.044;14.416;2023-04-25T02:30:19;6.80;1.00
38359;DHT22;42072;48.044;14.416;2023-04-25T02:32:46;6.80;1.00
38359;DHT22;42072;48.044;14.416;2023-04-25T02:35:14;6.80;1.00
38359;DHT22;42072;48.044;14.416;2023-04-25T02:37:42;6.70;1.00
38359;DHT22;42072;48.044;14.416;2023-04-25T02:40:09;6.60;1.00
38359;DHT22;42072;48.044;14.416;2023-04-25T02:42:37;6.40;1.00
38359;DHT22;42072;48.044;14.416;2023-04-25T02:45:05;6.20;1.00
38359;DHT22;42072;48.044;14.416;2023-04-25T02:47:32;6.00;1.00
38359;DHT22;42072;48.044;14.416;2023-04-25T02:49:59;5.80;1.00
38359;DHT22;42072;48.044;14.416;2023-04-25T02:52:27;5.70;1.00
38359;DHT22;42072;48.044;14.416;2023-04-25T02:54:54;5.50;1.00
38359;DHT22;42072;48.044;14.416;2023-04-25T02:57:21;5.50;4.60
38359;DHT22;42072;48.044;14.416;2023-04-25T02:59:48;5.30;17.90
38359;DHT22;42072;48.044;14.416;2023-04-25T03:02:15;5.30;31.80
38359;DHT22;42072;48.044;14.416;2023-04-25T03:04:42;5.20;47.40
38359;DHT22;42072;48.044;14.416;2023-04-25T03:07:10;5.20;65.40
38359;DHT22;42072;48.044;14.416;2023-04-25T03:09:37;5.20;85.20
38359;DHT22;42072;48.044;14.416;2023-04-25T03:12:05;5.10;92.90
38359;DHT22;42072;48.044;14.416;2023-04-25T03:14:32;5.00;99.40
38359;DHT22;42072;48.044;14.416;2023-04-25T03:17:00;5.00;99.90
38359;DHT22;42072;48.044;14.416;2023-04-25T03:19:27;4.90;99.90
38359;DHT22;42072;48.044;14.416;2023-04-25T03:21:54;4.90;99.90
38359;DHT22;42072;48.044;14.416;2023-04-25T03:24:21;4.90;99.90
38359;DHT22;42072;48.044;14.416;2023-04-25T03:26:48;4.90;99.90
38359;DHT22;42072;48.044;14.416;2023-04-25T03:29:16;4.80;99.90
38359;DHT22;42072;48.044;14.416;2023-04-25T03:31:43;4.80;99.90
38359;DHT22;42072;48.044;14.416;2023-04-25T03:34:10;4.70;99.90
38359;DHT22;42072;48.044;14.416;2023-04-25T03:36:37;4.70;99.90
38359;DHT22;42072;48.044;14.416;2023-04-25T03:39:07;4.70;99.90
38359;DHT22;42072;48.044;14.416;2023-04-25T03:41:34;4.60;99.90
38359;DHT22;42072;48.044;14.416;2023-04-25T03:44:01;4.70;99.90
38359;DHT22;42072;48.044;14.416;2023-04-25T03:46:28;4.70;99.90
38359;DHT22;42072;48.044;14.416;2023-04-25T03:48:56;4.60;99.90
38359;DHT22;42072;48.044;14.416;2023-04-25T03:51:23;4.60;99.90
38359;DHT22;42072;48.044;14.416;2023-04-25T03:53:51;4.60;99.90
38359;DHT22;42072;48.044;14.416;2023-04-25T03:56:19;4.60;99.90
38359;DHT22;42072;48.044;14.416;2023-04-25T03:58:47;4.60;99.90
38359;DHT22;42072;48.044;14.416;2023-04-25T04:01:14;4.60;99.90
38359;DHT22;42072;48.044;14.416;2023-04-25T04:03:41;4.70;99.90
38359;DHT22;42072;48.044;14.416;2023-04-25T04:06:09;4.60;99.90
38359;DHT22;42072;48.044;14.416;2023-04-25T04:08:37;4.60;99.90
38359;DHT22;42072;48.044;14.416;2023-04-25T04:11:04;4.70;99.90
38359;DHT22;42072;48.044;14.416;2023-04-25T04:13:32;4.70;99.90
38359;DHT22;42072;48.044;14.416;2023-04-25T04:15:59;4.80;99.90
38359;DHT22;42072;48.044;14.416;2023-04-25T04:18:26;4.90;99.90
38359;DHT22;42072;48.044;14.416;2023-04-25T04:20:53;5.00;99.90
38359;DHT22;42072;48.044;14.416;2023-04-25T04:23:21;5.10;99.90
38359;DHT22;42072;48.044;14.416;2023-04-25T04:25:49;5.20;99.90
38359;DHT22;42072;48.044;14.416;2023-04-25T04:28:16;5.20;99.90
38359;DHT22;42072;48.044;14.416;2023-04-25T04:30:44;5.20;99.90
38359;DHT22;42072;48.044;14.416;2023-04-25T04:33:14;5.30;99.90
38359;DHT22;42072;48.044;14.416;2023-04-25T04:35:46;5.40;99.90
38359;DHT22;42072;48.044;14.416;2023-04-25T04:38:13;5.50;99.90
38359;DHT22;42072;48.044;14.416;2023-04-25T04:40:42;5.50;99.90
38359;DHT22;42072;48.044;14.416;2023-04-25T04:43:13;5.60;99.90
38359;DHT22;42072;48.044;14.416;2023-04-25T04:45:45;5.70;99.90
38359;DHT22;42072;48.044;14.416;2023-04-25T04:48:12;5.90;99.90
38359;DHT22;42072;48.044;14.416;2023-04-25T04:50:43;6.10;99.90
38359;DHT22;42072;48.044;14.416;2023-04-25T04:53:12;6.60;99.90
38359;DHT22;42072;48.044;14.416;2023-04-25T04:55:39;7.50;99.90
38359;DHT22;42072;48.044;14.416;2023-04-25T04:58:08;8.10;37.00
38359;DHT22;42072;48.044;14.416;2023-04-25T05:00:36;8.90;1.00
38359;DHT22;42072;48.044;14.416;2023-04-25T05:03:03;9.30;99.90
38359;DHT22;42072;48.044;14.416;2023-04-25T05:05:30;9.40;99.90
38359;DHT22;42072;48.044;14.416;2023-04-25T05:07:57;9.20;99.90
38359;DHT22;42072;48.044;14.416;2023-04-25T05:10:25;8.90;99.90
38359;DHT22;42072;48.044;14.416;2023-04-25T05:12:52;8.70;99.90
38359;DHT22;42072;48.044;14.416;2023-04-25T05:15:20;8.60;99.90
38359;DHT22;42072;48.044;14.416;2023-04-25T05:17:47;8.50;99.90
38359;DHT22;42072;48.044;14.416;2023-04-25T05:20:14;8.60;99.90
38359;DHT22;42072;48.044;14.416;2023-04-25T05:22:42;8.60;99.90
38359;DHT22;42072;48.044;14.416;2023-04-25T05:25:09;8.70;99.90
38359;DHT22;42072;48.044;14.416;2023-04-25T05:27:36;8.80;99.90
38359;DHT22;42072;48.044;14.416;2023-04-25T05:30:04;10.30;99.90
38359;DHT22;42072;48.044;14.416;2023-04-25T05:32:32;12.60;41.40
38359;DHT22;42072;48.044;14.416;2023-04-25T05:34:59;14.80;1.00
38359;DHT22;42072;48.044;14.416;2023-04-25T05:37:27;16.40;1.00
38359;DHT22;42072;48.044;14.416;2023-04-25T05:39:54;17.40;1.00
38359;DHT22;42072;48.044;14.416;2023-04-25T05:42:21;16.60;1.00
38359;DHT22;42072;48.044;14.416;2023-04-25T05:44:48;17.00;1.00
38359;DHT22;42072;48.044;14.416;2023-04-25T05:47:16;16.40;1.00
38359;DHT22;42072;48.044;14.416;2023-04-25T05:49:43;16.90;1.00
38359;DHT22;42072;48.044;14.416;2023-04-25T05:52:10;16.10;1.00
38359;DHT22;42072;48.044;14.416;2023-04-25T05:54:37;15.30;1.00
38359;DHT22;42072;48.044;14.416;2023-04-25T05:57:04;15.50;1.00
38359;DHT22;42072;48.044;14.416;2023-04-25T05:59:31;15.40;1.00
38359;DHT22;42072;48.044;14.416;2023-04-25T06:01:58;14.90;1.00
38359;DHT22;42072;48.044;14.416;2023-04-25T06:04:27;14.20;1.00
38359;DHT22;42072;48.044;14.416;2023-04-25T06:06:55;13.60;1.00
38359;DHT22;42072;48.044;14.416;2023-04-25T06:09:23;13.30;1.00
38359;DHT22;42072;48.044;14.416;2023-04-25T06:11:50;13.20;1.00
38359;DHT22;42072;48.044;14.416;2023-04-25T06:14:17;13.00;1.00
38359;DHT22;42072;48.044;14.416;2023-04-25T06:16:44;12.90;1.00
38359;DHT22;42072;48.044;14.416;2023-04-25T06:19:11;12.80;1.00
38359;DHT22;42072;48.044;14.416;2023-04-25T06:21:38;12.60;1.00
38359;DHT22;42072;48.044;14.416;2023-04-25T06:24:06;12.50;1.00
38359;DHT22;42072;48.044;14.416;2023-04-25T06:26:33;12.60;1.00
38359;DHT22;42072;48.044;14.416;2023-04-25T06:29:00;12.60;1.00
38359;DHT22;42072;48.044;14.416;2023-04-25T06:31:27;12.60;1.00
38359;DHT22;42072;48.044;14.416;2023-04-25T06:33:55;12.70;1.00
38359;DHT22;42072;48.044;14.416;2023-04-25T06:36:23;12.80;1.00
38359;DHT22;42072;48.044;14.416;2023-04-25T06:38:52;12.70;1.00
38359;DHT22;42072;48.044;14.416;2023-04-25T06:41:22;12.90;1.00
38359;DHT22;42072;48.044;14.416;2023-04-25T06:43:49;13.10;1.00
38359;DHT22;42072;48.044;14.416;2023-04-25T06:46:17;13.10;1.00
38359;DHT22;42072;48.044;14.416;2023-04-25T06:48:44;13.10;1.00
38359;DHT22;42072;48.044;14.416;2023-04-25T06:51:12;13.10;1.00
38359;DHT22;42072;48.044;14.416;2023-04-25T06:53:40;13.00;1.00
38359;DHT22;42072;48.044;14.416;2023-04-25T06:56:07;13.00;1.00
38359;DHT22;42072;48.044;14.416;2023-04-25T06:58:34;12.80;1.00
38359;DHT22;42072;48.044;14.416;2023-04-25T07:01:02;12.70;1.00
38359;DHT22;42072;48.044;14.416;2023-04-25T07:03:29;12.60;1.00
38359;DHT22;42072;48.044;14.416;2023-04-25T07:05:57;12.70;1.00
38359;DHT22;42072;48.044;14.416;2023-04-25T07:08:24;13.10;1.00
38359;DHT22;42072;48.044;14.416;2023-04-25T07:10:51;13.20;1.00
38359;DHT22;42072;48.044;14.416;2023-04-25T07:13:19;13.20;1.00
38359;DHT22;42072;48.044;14.416;2023-04-25T07:15:46;13.30;1.00
38359;DHT22;42072;48.044;14.416;2023-04-25T07:18:15;13.30;1.00
38359;DHT22;42072;48.044;14.416;2023-04-25T07:20:42;13.20;1.00
38359;DHT22;42072;48.044;14.416;2023-04-25T07:23:10;13.10;1.00
38359;DHT22;42072;48.044;14.416;2023-04-25T07:25:37;13.10;1.00
38359;DHT22;42072;48.044;14.416;2023-04-25T07:28:04;13.00;1.00
38359;DHT22;42072;48.044;14.416;2023-04-25T07:30:31;12.80;1.00
38359;DHT22;42072;48.044;14.416;2023-04-25T07:32:59;12.60;1.00
38359;DHT22;42072;48.044;14.416;2023-04-25T07:35:26;12.60;1.00
38359;DHT22;42072;48.044;14.416;2023-04-25T07:37:53;12.50;1.00
38359;DHT22;42072;48.044;14.416;2023-04-25T07:40:20;12.40;1.00
38359;DHT22;42072;48.044;14.416;2023-04-25T07:42:48;12.40;1.00
38359;DHT22;42072;48.044;14.416;2023-04-25T07:45:15;12.50;1.00
38359;DHT22;42072;48.044;14.416;2023-04-25T07:47:43;12.60;1.00
38359;DHT22;42072;48.044;14.416;2023-04-25T07:50:10;12.90;1.00
38359;DHT22;42072;48.044;14.416;2023-04-25T07:52:37;13.10;1.00
38359;DHT22;42072;48.044;14.416;2023-04-25T07:55:05;13.20;1.00
38359;DHT22;42072;48.044;14.416;2023-04-25T07:57:32;13.10;1.00
38359;DHT22;42072;48.044;14.416;2023-04-25T07:59:59;13.40;1.00
38359;DHT22;42072;48.044;14.416;2023-04-25T08:02:26;13.60;1.00
38359;DHT22;42072;48.044;14.416;2023-04-25T08:04:55;13.90;1.00
38359;DHT22;42072;48.044;14.416;2023-04-25T08:07:22;14.10;1.00
38359;DHT22;42072;48.044;14.416;2023-04-25T08:09:49;14.40;1.00
38359;DHT22;42072;48.044;14.416;2023-04-25T08:12:17;14.30;1.00
38359;DHT22;42072;48.044;14.416;2023-04-25T08:14:44;14.20;1.00
38359;DHT22;42072;48.044;14.416;2023-04-25T08:17:11;14.10;1.00
38359;DHT22;42072;48.044;14.416;2023-04-25T08:19:38;14.20;1.00
38359;DHT22;42072;48.044;14.416;2023-04-25T08:22:06;14.40;1.00
38359;DHT22;42072;48.044;14.416;2023-04-25T08:24:33;15.00;1.00
38359;DHT22;42072;48.044;14.416;2023-04-25T08:27:03;15.40;99.90
38359;DHT22;42072;48.044;14.416;2023-04-25T08:29:30;15.30;99.90
38359;DHT22;42072;48.044;14.416;2023-04-25T08:31:57;15.60;99.90
38359;DHT22;42072;48.044;14.416;2023-04-25T08:34:25;15.70;99.90
38359;DHT22;42072;48.044;14.416;2023-04-25T08:36:52;15.50;99.90
38359;DHT22;42072;48.044;14.416;2023-04-25T08:39:19;15.00;99.90
38359;DHT22;42072;48.044;14.416;2023-04-25T08:41:47;14.60;99.90
38359;DHT22;42072;48.044;14.416;2023-04-25T08:44:15;14.10;99.90
38359;DHT22;42072;48.044;14.416;2023-04-25T08:46:46;13.70;1.00
38359;DHT22;42072;48.044;14.416;2023-04-25T08:49:17;13.10;1.00
38359;DHT22;42072;48.044;14.416;2023-04-25T08:51:46;12.10;1.00
38359;DHT22;42072;48.044;14.416;2023-04-25T08:54:14;11.50;1.00
38359;DHT22;42072;48.044;14.416;2023-04-25T08:57:01;10.80;1.00
38359;DHT22;42072;48.044;14.416;2023-04-25T08:59:30;10.40;4.50
38359;DHT22;42072;48.044;14.416;2023-04-25T09:01:58;10.50;4.20
38359;DHT22;42072;48.044;14.416;2023-04-25T09:04:25;10.60;7.70
38359;DHT22;42072;48.044;14.416;2023-04-25T09:06:53;10.90;22.60
38359;DHT22;42072;48.044;14.416;2023-04-25T09:09:20;11.40;20.20
38359;DHT22;42072;48.044;14.416;2023-04-25T09:11:48;11.80;1.00
38359;DHT22;42072;48.044;14.416;2023-04-25T09:14:17;12.00;1.00
38359;DHT22;42072;48.044;14.416;2023-04-25T09:19:25;12.40;1.00
38359;DHT22;42072;48.044;14.416;2023-04-25T09:21:57;12.50;1.00
38359;DHT22;42072;48.044;14.416;2023-04-25T09:24:44;12.60;1.00
38359;DHT22;42072;48.044;14.416;2023-04-25T09:27:19;12.60;1.00
38359;DHT22;42072;48.044;14.416;2023-04-25T09:29:47;12.50;1.00
38359;DHT22;42072;48.044;14.416;2023-04-25T09:32:22;12.70;1.00
38359;DHT22;42072;48.044;14.416;2023-04-25T09:34:51;13.00;1.00
38359;DHT22;42072;48.044;14.416;2023-04-25T09:37:20;13.00;1.00
38359;DHT22;42072;48.044;14.416;2023-04-25T09:39:50;13.00;1.00
38359;DHT22;42072;48.044;14.416;2023-04-25T09:42:18;13.00;1.00
38359;DHT22;42072;48.044;14.416;2023-04-25T09:44:48;13.10;1.00
38359;DHT22;42072;48.044;14.416;2023-04-25T09:47:15;13.20;1.00
38359;DHT22;42072;48.044;14.416;2023-04-25T09:49:48;13.40;1.00
38359;DHT22;42072;48.044;14.416;2023-04-25T09:52:23;13.80;1.00
38359;DHT22;42072;48.044;14.416;2023-04-25T09:54:51;14.10;1.00
38359;DHT22;42072;48.044;14.416;2023-04-25T09:57:20;14.50;1.00
38359;DHT22;42072;48.044;14.416;2023-04-25T09:59:50;15.00;1.00
38359;DHT22;42072;48.044;14.416;2023-04-25T10:02:21;15.30;1.00
38359;DHT22;42072;48.044;14.416;2023-04-25T10:04:51;15.60;1.00
38359;DHT22;42072;48.044;14.416;2023-04-25T10:07:20;15.90;1.00
38359;DHT22;42072;48.044;14.416;2023-04-25T10:09:53;16.10;1.00
38359;DHT22;42072;48.044;14.416;2023-04-25T10:12:22;15.50;99.90
38359;DHT22;42072;48.044;14.416;2023-04-25T10:14:50;15.10;99.90
38359;DHT22;42072;48.044;14.416;2023-04-25T10:17:20;14.50;99.90
38359;DHT22;42072;48.044;14.416;2023-04-25T10:19:47;14.10;1.00
38359;DHT22;42072;48.044;14.416;2023-04-25T10:24:46;13.60;1.00
38359;DHT22;42072;48.044;14.416;2023-04-25T10:27:14;13.50;1.00
38359;DHT22;42072;48.044;14.416;2023-04-25T10:29:41;13.70;1.00
38359;DHT22;42072;48.044;14.416;2023-04-25T10:32:11;13.70;1.00
38359;DHT22;42072;48.044;14.416;2023-04-25T10:34:43;13.70;1.00
38359;DHT22;42072;48.044;14.416;2023-04-25T10:37:14;13.80;1.00
38359;DHT22;42072;48.044;14.416;2023-04-25T10:39:42;13.60;1.00
38359;DHT22;42072;48.044;14.416;2023-04-25T10:42:11;13.50;1.00
38359;DHT22;42072;48.044;14.416;2023-04-25T10:44:38;13.40;1.00
38359;DHT22;42072;48.044;14.416;2023-04-25T10:47:07;13.50;1.00
38359;DHT22;42072;48.044;14.416;2023-04-25T10:49:45;14.00;1.00
38359;DHT22;42072;48.044;14.416;2023-04-25T10:52:25;14.00;1.00
38359;DHT22;42072;48.044;14.416;2023-04-25T10:54:54;13.50;1.00
38359;DHT22;42072;48.044;14.416;2023-04-25T11:00:05;13.30;1.00
38359;DHT22;42072;48.044;14.416;2023-04-25T11:02:58;13.80;1.00
38359;DHT22;42072;48.044;14.416;2023-04-25T11:05:34;14.00;1.00
38359;DHT22;42072;48.044;14.416;2023-04-25T11:08:13;14.30;1.00
38359;DHT22;42072;48.044;14.416;2023-04-25T11:10:47;14.60;1.00
38359;DHT22;42072;48.044;14.416;2023-04-25T11:13:20;14.70;99.90
38359;DHT22;42072;48.044;14.416;2023-04-25T11:15:51;15.10;99.90
38359;DHT22;42072;48.044;14.416;2023-04-25T11:18:40;15.40;99.90
38359;DHT22;42072;48.044;14.416;2023-04-25T11:21:07;15.30;99.90
38359;DHT22;42072;48.044;14.416;2023-04-25T11:23:34;15.70;99.90
38359;DHT22;42072;48.044;14.416;2023-04-25T11:26:03;15.80;99.90
38359;DHT22;42072;48.044;14.416;2023-04-25T11:28:30;15.70;99.90
38359;DHT22;42072;48.044;14.416;2023-04-25T11:30:57;15.80;99.90
38359;DHT22;42072;48.044;14.416;2023-04-25T11:33:25;15.60;99.90
38359;DHT22;42072;48.044;14.416;2023-04-25T11:35:54;15.00;99.90
38359;DHT22;42072;48.044;14.416;2023-04-25T11:38:24;14.60;99.90
38359;DHT22;42072;48.044;14.416;2023-04-25T11:40:55;13.90;1.00
38359;DHT22;42072;48.044;14.416;2023-04-25T11:43:22;12.90;1.00
38359;DHT22;42072;48.044;14.416;2023-04-25T11:45:50;11.60;1.00
38359;DHT22;42072;48.044;14.416;2023-04-25T11:48:20;11.00;1.00
38359;DHT22;42072;48.044;14.416;2023-04-25T11:50:53;10.50;1.00
38359;DHT22;42072;48.044;14.416;2023-04-25T11:53:20;9.90;1.00
38359;DHT22;42072;48.044;14.416;2023-04-25T11:55:48;9.70;1.00
38359;DHT22;42072;48.044;14.416;2023-04-25T11:58:18;9.70;35.30
38359;DHT22;42072;48.044;14.416;2023-04-25T12:00:46;10.20;36.70
38359;DHT22;42072;48.044;14.416;2023-04-25T12:03:17;10.50;12.70
38359;DHT22;42072;48.044;14.416;2023-04-25T12:05:45;10.70;1.00
38359;DHT22;42072;48.044;14.416;2023-04-25T12:08:15;10.80;1.00
38359;DHT22;42072;48.044;14.416;2023-04-25T12:10:44;11.00;1.00
38359;DHT22;42072;48.044;14.416;2023-04-25T12:13:20;11.30;1.00
38359;DHT22;42072;48.044;14.416;2023-04-25T12:15:48;11.40;1.00
38359;DHT22;42072;48.044;14.416;2023-04-25T12:18:19;11.50;1.00
38359;DHT22;42072;48.044;14.416;2023-04-25T12:20:47;11.50;1.00
38359;DHT22;42072;48.044;14.416;2023-04-25T12:23:14;11.40;1.00
38359;DHT22;42072;48.044;14.416;2023-04-25T12:25:43;11.40;1.00
38359;DHT22;42072;48.044;14.416;2023-04-25T12:31:07;11.40;1.00
38359;DHT22;42072;48.044;14.416;2023-04-25T12:33:37;11.60;1.00
38359;DHT22;42072;48.044;14.416;2023-04-25T12:36:05;11.90;1.00
38359;DHT22;42072;48.044;14.416;2023-04-25T12:38:41;12.20;1.00
38359;DHT22;42072;48.044;14.416;2023-04-25T12:41:09;12.50;1.00
38359;DHT22;42072;48.044;14.416;2023-04-25T12:43:36;12.80;1.00
38359;DHT22;42072;48.044;14.416;2023-04-25T12:46:03;13.00;1.00
38359;DHT22;42072;48.044;14.416;2023-04-25T12:48:32;13.30;1.00
38359;DHT22;42072;48.044;14.416;2023-04-25T12:51:00;13.30;1.00
38359;DHT22;42072;48.044;14.416;2023-04-25T12:53:28;13.40;1.00
38359;DHT22;42072;48.044;14.416;2023-04-25T12:55:55;13.50;1.00
38359;DHT22;42072;48.044;14.416;2023-04-25T12:58:23;13.70;1.00
38359;DHT22;42072;48.044;14.416;2023-04-25T13:00:52;13.80;1.00
38359;DHT22;42072;48.044;14.416;2023-04-25T13:03:19;14.00;1.00
38359;DHT22;42072;48.044;14.416;2023-04-25T13:05:47;14.20;1.00
38359;DHT22;42072;48.044;14.416;2023-04-25T13:08:14;14.10;1.00
38359;DHT22;42072;48.044;14.416;2023-04-25T13:10:41;14.30;1.00
38359;DHT22;42072;48.044;14.416;2023-04-25T13:13:08;14.40;1.00
38359;DHT22;42072;48.044;14.416;2023-04-25T13:15:35;14.30;99.90
38359;DHT22;42072;48.044;14.416;2023-04-25T13:18:04;14.40;99.90
38359;DHT22;42072;48.044;14.416;2023-04-25T13:20:34;14.50;99.90
38359;DHT22;42072;48.044;14.416;2023-04-25T13:23:01;14.60;99.90
38359;DHT22;42072;48.044;14.416;2023-04-25T13:25:29;14.40;1.00
38359;DHT22;42072;48.044;14.416;2023-04-25T13:27:56;14.00;1.00
38359;DHT22;42072;48.044;14.416;2023-04-25T13:30:23;13.20;1.00
38359;DHT22;42072;48.044;14.416;2023-04-25T13:32:50;12.70;1.00
38359;DHT22;42072;48.044;14.416;2023-04-25T13:35:18;12.10;1.00
38359;DHT22;42072;48.044;14.416;2023-04-25T13:37:45;11.50;1.00
38359;DHT22;42072;48.044;14.416;2023-04-25T13:40:12;11.00;1.00
38359;DHT22;42072;48.044;14.416;2023-04-25T13:42:39;10.40;1.00
38359;DHT22;42072;48.044;14.416;2023-04-25T13:45:07;9.80;57.30
38359;DHT22;42072;48.044;14.416;2023-04-25T13:47:35;9.60;99.90
38359;DHT22;42072;48.044;14.416;2023-04-25T13:50:03;9.70;99.90
38359;DHT22;42072;48.044;14.416;2023-04-25T13:52:30;10.00;99.90
38359;DHT22;42072;48.044;14.416;2023-04-25T13:54:58;10.40;99.90
38359;DHT22;42072;48.044;14.416;2023-04-25T13:57:25;10.50;99.90
38359;DHT22;42072;48.044;14.416;2023-04-25T13:59:53;10.60;99.90
38359;DHT22;42072;48.044;14.416;2023-04-25T14:02:20;10.70;99.90
38359;DHT22;42072;48.044;14.416;2023-04-25T14:04:48;10.70;99.90
38359;DHT22;42072;48.044;14.416;2023-04-25T14:07:15;10.60;99.90
38359;DHT22;42072;48.044;14.416;2023-04-25T14:09:43;10.50;99.90
38359;DHT22;42072;48.044;14.416;2023-04-25T14:12:10;10.50;99.90
38359;DHT22;42072;48.044;14.416;2023-04-25T14:14:38;10.50;99.90
38359;DHT22;42072;48.044;14.416;2023-04-25T14:17:05;10.50;99.90
38359;DHT22;42072;48.044;14.416;2023-04-25T14:19:33;10.40;99.90
38359;DHT22;42072;48.044;14.416;2023-04-25T14:22:00;10.30;99.90
38359;DHT22;42072;48.044;14.416;2023-04-25T14:24:27;10.10;99.90
38359;DHT22;42072;48.044;14.416;2023-04-25T14:26:55;10.10;99.90
38359;DHT22;42072;48.044;14.416;2023-04-25T14:29:22;10.10;99.90
38359;DHT22;42072;48.044;14.416;2023-04-25T14:31:49;10.10;99.90
38359;DHT22;42072;48.044;14.416;2023-04-25T14:34:17;10.20;99.90
38359;DHT22;42072;48.044;14.416;2023-04-25T14:36:44;10.30;99.90
38359;DHT22;42072;48.044;14.416;2023-04-25T14:39:12;10.40;99.90
38359;DHT22;42072;48.044;14.416;2023-04-25T14:41:41;10.40;99.90
38359;DHT22;42072;48.044;14.416;2023-04-25T14:44:08;10.50;99.90
38359;DHT22;42072;48.044;14.416;2023-04-25T14:46:36;10.90;99.90
38359;DHT22;42072;48.044;14.416;2023-04-25T14:49:04;11.30;99.90
38359;DHT22;42072;48.044;14.416;2023-04-25T14:51:33;11.50;99.90
38359;DHT22;42072;48.044;14.416;2023-04-25T14:54:00;11.60;99.90
38359;DHT22;42072;48.044;14.416;2023-04-25T14:56:27;11.70;88.90
38359;DHT22;42072;48.044;14.416;2023-04-25T14:58:55;11.70;92.00
38359;DHT22;42072;48.044;14.416;2023-04-25T15:01:23;11.60;85.10
38359;DHT22;42072;48.044;14.416;2023-04-25T15:03:50;11.40;99.90
38359;DHT22;42072;48.044;14.416;2023-04-25T15:06:18;11.30;99.90
38359;DHT22;42072;48.044;14.416;2023-04-25T15:08:45;11.40;99.90
38359;DHT22;42072;48.044;14.416;2023-04-25T15:11:12;11.40;99.90
38359;DHT22;42072;48.044;14.416;2023-04-25T15:13:40;11.30;99.90
38359;DHT22;42072;48.044;14.416;2023-04-25T15:16:07;11.30;99.90
38359;DHT22;42072;48.044;14.416;2023-04-25T15:18:35;11.40;99.90
38359;DHT22;42072;48.044;14.416;2023-04-25T15:21:03;11.50;97.50
38359;DHT22;42072;48.044;14.416;2023-04-25T15:23:34;12.00;99.90
38359;DHT22;42072;48.044;14.416;2023-04-25T15:26:03;12.40;76.00
38359;DHT22;42072;48.044;14.416;2023-04-25T15:28:31;12.60;48.60
38359;DHT22;42072;48.044;14.416;2023-04-25T15:31:03;12.70;29.20
38359;DHT22;42072;48.044;14.416;2023-04-25T15:33:34;12.90;15.80
38359;DHT22;42072;48.044;14.416;2023-04-25T15:36:06;12.80;19.40
38359;DHT22;42072;48.044;14.416;2023-04-25T15:38:38;13.00;8.50
38359;DHT22;42072;48.044;14.416;2023-04-25T15:41:06;13.40;3.20
38359;DHT22;42072;48.044;14.416;2023-04-25T15:43:36;13.60;1.00
38359;DHT22;42072;48.044;14.416;2023-04-25T15:46:05;13.60;1.00
38359;DHT22;42072;48.044;14.416;2023-04-25T15:48:35;13.50;1.00